KARB/ARB METAR and TAF weather

Enter ICAO airport designator
Station Type Date Time Source
KARB METAR 2021/09/25 11:12 UTC NOAA

KARB 251112Z AUTO 24006KT 8SM -RA SCT020 BKN047 OVC065 13/11 A2988 RMK AO2 P0000 T01280111


Station Type Date Time Source
KARB Decoded METAR 2021/09/25 11:12 UTC NOAA

ANN ARBOR MUNICIPAL AIRPORT, MI, United States (KARB) 42-13N 083-45W 251M
Sep 25, 2021 - 07:12 AM EDT / 2021.09.25 1112 UTC
Wind: from the WSW (240 degrees) at 7 MPH (6 KT):0
Visibility: 8 mile(s):0
Sky conditions: overcast
Weather: light rain
Precipitation last hour: A trace
Temperature: 55.0 F (12.8 C)
Dew Point: 52.0 F (11.1 C)
Relative Humidity: 89%
Pressure (altimeter): 29.88 in. Hg (1011 hPa)
ob: KARB 251112Z AUTO 24006KT 8SM -RA SCT020 BKN047 OVC065 13/11 A2988 RMK AO2 P0000 T01280111
cycle: 11

Station Type Date Time Source
KARB TAF UTC NOAA

Error!

Example: see airport list